Time;durP1;ratioP1;P1;durP2;ratioP2;P2;SDS_P1;SDS_P2;PMS_P1;PMS_P2;Temp;Humidity;BMP_temperature;BMP_pressure;BME280_temperature;BME280_humidity;BME280_pressure;Samples;Min_cycle;Max_cycle;Signal;HPM_P1;HPM_P2
2021/01/20 00:02:09;;;;;;;5.77;2.00;;;;;;;;;;4974560;28;20277;-78
2021/01/20 00:04:39;;;;;;;5.07;2.00;;;;;;;;;;4957691;28;20282;-79
2021/01/20 00:07:05;;;;;;;4.87;1.60;;;;;;;;;;4950582;28;20551;-80
2021/01/20 00:09:31;;;;;;;4.83;2.10;;;;;;;;;;4975399;28;20258;-80
2021/01/20 00:11:57;;;;;;;4.53;1.67;;;;;;;;;;4958044;28;20362;-80
2021/01/20 00:14:24;;;;;;;3.77;1.80;;;;;;;;;;4974439;28;20297;-80
2021/01/20 00:16:50;;;;;;;5.23;2.30;;;;;;;;;;4973570;28;20310;-80
2021/01/20 00:19:16;;;;;;;6.33;2.37;;;;;;;;;;4954426;29;20342;-80
2021/01/20 00:21:42;;;;;;;5.60;2.17;;;;;;;;;;4958170;28;20279;-80
2021/01/20 00:24:09;;;;;;;4.77;2.17;;;;;;;;;;4957603;28;20804;-81
2021/01/20 00:26:35;;;;;;;4.70;2.20;;;;;;;;;;4955986;28;22321;-80
2021/01/20 00:29:01;;;;;;;3.90;1.77;;;;;;;;;;4971507;28;20693;-79
2021/01/20 00:31:28;;;;;;;5.87;2.13;;;;;;;;;;4953643;28;20298;-80
2021/01/20 00:33:54;;;;;;;6.07;1.80;;;;;;;;;;4976763;28;20360;-79
2021/01/20 00:36:20;;;;;;;4.23;1.93;;;;;;;;;;4984459;28;21045;-79
2021/01/20 00:38:46;;;;;;;4.17;1.83;;;;;;;;;;4954410;29;20282;-77
2021/01/20 00:41:12;;;;;;;3.63;1.53;;;;;;;;;;4955426;29;20270;-80
2021/01/20 00:43:38;;;;;;;5.07;1.80;;;;;;;;;;4952489;29;20283;-79
2021/01/20 00:46:04;;;;;;;3.00;1.30;;;;;;;;;;4960022;28;20369;-78
2021/01/20 00:48:30;;;;;;;4.03;1.60;;;;;;;;;;4972269;28;20293;-77
2021/01/20 00:50:57;;;;;;;16.33;5.23;;;;;;;;;;4956555;28;20278;-80
2021/01/20 00:53:23;;;;;;;14.93;6.10;;;;;;;;;;4973508;28;20275;-79
2021/01/20 00:55:49;;;;;;;9.63;4.33;;;;;;;;;;4973059;28;20356;-80
2021/01/20 00:58:16;;;;;;;6.63;2.57;;;;;;;;;;4969698;28;20287;-80
2021/01/20 01:00:42;;;;;;;9.30;3.80;;;;;;;;;;4954177;28;20313;-77
2021/01/20 01:03:10;;;;;;;12.37;5.47;;;;;;;;;;4975477;28;20271;-79
2021/01/20 01:05:36;;;;;;;16.23;8.60;;;;;;;;;;4957788;28;20309;-80
2021/01/20 01:08:02;;;;;;;7.73;3.83;;;;;;;;;;4966380;28;20327;-80
2021/01/20 01:10:28;;;;;;;9.67;3.97;;;;;;;;;;4975323;28;20719;-79
2021/01/20 01:12:54;;;;;;;7.03;3.40;;;;;;;;;;4975241;28;20362;-80
2021/01/20 01:15:20;;;;;;;8.80;3.57;;;;;;;;;;4956165;28;20293;-80
2021/01/20 01:17:46;;;;;;;4.63;2.73;;;;;;;;;;4972155;28;20279;-80
2021/01/20 01:20:13;;;;;;;6.23;2.90;;;;;;;;;;4965069;28;20333;-77
2021/01/20 01:22:39;;;;;;;7.70;3.37;;;;;;;;;;4968920;28;20352;-76
2021/01/20 01:25:05;;;;;;;8.23;3.60;;;;;;;;;;4961309;28;20274;-77
2021/01/20 01:27:31;;;;;;;7.20;3.87;;;;;;;;;;4955527;28;20282;-78
2021/01/20 01:29:57;;;;;;;9.50;4.30;;;;;;;;;;4957189;28;20812;-79
2021/01/20 01:32:23;;;;;;;9.73;4.33;;;;;;;;;;4957294;28;20752;-80
2021/01/20 01:34:49;;;;;;;9.70;4.47;;;;;;;;;;4957586;28;20309;-79
2021/01/20 01:37:15;;;;;;;9.23;4.70;;;;;;;;;;4947511;29;20314;-79
2021/01/20 01:39:42;;;;;;;9.37;4.30;;;;;;;;;;4938090;29;20366;-77
2021/01/20 01:42:09;;;;;;;10.53;4.97;;;;;;;;;;4947003;29;20298;-79
2021/01/20 01:44:35;;;;;;;9.93;4.90;;;;;;;;;;4937819;29;20273;-79
2021/01/20 01:47:01;;;;;;;12.53;4.63;;;;;;;;;;4941074;28;20734;-78
2021/01/20 01:49:27;;;;;;;10.23;5.13;;;;;;;;;;4969781;28;20275;-79
2021/01/20 01:51:54;;;;;;;13.63;6.43;;;;;;;;;;4956764;28;20274;-78
2021/01/20 01:54:20;;;;;;;14.87;6.63;;;;;;;;;;4953875;29;20286;-78
2021/01/20 01:56:46;;;;;;;11.30;5.47;;;;;;;;;;4954887;28;20628;-79
2021/01/20 01:59:13;;;;;;;12.87;6.17;;;;;;;;;;4972551;28;21094;-79
2021/01/20 02:01:39;;;;;;;13.10;6.80;;;;;;;;;;4955058;28;20325;-79
2021/01/20 02:04:05;;;;;;;16.70;6.80;;;;;;;;;;4972330;28;20262;-79
2021/01/20 02:06:31;;;;;;;13.93;6.57;;;;;;;;;;4971157;28;20293;-79
2021/01/20 02:08:58;;;;;;;12.30;7.20;;;;;;;;;;4960223;28;20285;-79
2021/01/20 02:11:43;;;;;;;15.73;7.30;;;;;;;;;;4974343;28;20262;-76
2021/01/20 02:14:26;;;;;;;24.00;10.83;;;;;;;;;;4954392;28;20325;-77
2021/01/20 02:17:00;;;;;;;27.38;8.77;;;;;;;;;;4959080;28;20305;-77
2021/01/20 02:19:36;;;;;;;50.23;16.27;;;;;;;;;;4970218;28;20134;-79
2021/01/20 02:22:16;;;;;;;46.90;17.97;;;;;;;;;;4959976;28;20273;-78
2021/01/20 02:24:56;;;;;;;37.83;14.73;;;;;;;;;;4975967;28;20336;-79
2021/01/20 02:27:30;;;;;;;18.67;9.27;;;;;;;;;;4954441;28;20286;-77
2021/01/20 02:30:08;;;;;;;17.05;7.85;;;;;;;;;;4964010;28;21099;-76
2021/01/20 02:32:35;;;;;;;15.93;7.83;;;;;;;;;;4948824;29;20038;-78
2021/01/20 02:35:02;;;;;;;12.47;7.00;;;;;;;;;;4954207;29;20710;-75
2021/01/20 02:37:29;;;;;;;17.83;8.57;;;;;;;;;;4948966;28;20282;-77
2021/01/20 02:39:55;;;;;;;21.33;8.57;;;;;;;;;;4955325;28;20701;-76
2021/01/20 02:42:21;;;;;;;14.27;6.97;;;;;;;;;;4956643;28;20301;-78
2021/01/20 02:44:47;;;;;;;12.77;6.57;;;;;;;;;;4973581;28;20294;-78
2021/01/20 02:47:13;;;;;;;24.47;9.27;;;;;;;;;;4954303;28;20290;-78
2021/01/20 02:49:39;;;;;;;17.40;7.07;;;;;;;;;;4969370;28;20652;-78
2021/01/20 02:52:24;;;;;;;22.93;9.43;;;;;;;;;;4956377;28;20266;-79
2021/01/20 02:54:51;;;;;;;12.80;6.57;;;;;;;;;;4956602;28;20286;-79
2021/01/20 02:57:17;;;;;;;11.93;5.97;;;;;;;;;;4947672;28;20291;-79
2021/01/20 02:59:46;;;;;;;12.53;5.37;;;;;;;;;;4960996;28;20330;-78
2021/01/20 03:02:17;;;;;;;13.77;6.43;;;;;;;;;;4968644;28;20306;-77
2021/01/20 03:04:45;;;;;;;10.93;5.27;;;;;;;;;;4961810;28;20388;-77
2021/01/20 03:07:11;;;;;;;11.30;5.00;;;;;;;;;;4953604;28;20283;-77
2021/01/20 03:09:38;;;;;;;10.10;4.63;;;;;;;;;;4971099;28;20284;-77
2021/01/20 03:12:04;;;;;;;11.37;5.50;;;;;;;;;;4976435;28;20305;-78
2021/01/20 03:14:31;;;;;;;12.60;4.80;;;;;;;;;;4957591;28;20286;-79
2021/01/20 03:16:57;;;;;;;9.60;4.70;;;;;;;;;;4973195;28;20657;-78
2021/01/20 03:19:23;;;;;;;9.67;4.57;;;;;;;;;;4956662;29;20286;-78
2021/01/20 03:21:49;;;;;;;10.33;5.40;;;;;;;;;;4954085;29;20263;-78
2021/01/20 03:24:15;;;;;;;11.10;5.20;;;;;;;;;;4965274;28;20805;-78
2021/01/20 03:26:41;;;;;;;8.23;3.07;;;;;;;;;;4956220;28;20356;-78
2021/01/20 03:29:07;;;;;;;6.67;3.07;;;;;;;;;;4960789;28;20940;-77
2021/01/20 03:31:33;;;;;;;6.43;2.83;;;;;;;;;;4974414;28;20270;-77
2021/01/20 03:33:59;;;;;;;5.23;2.30;;;;;;;;;;4962456;28;20282;-77
2021/01/20 03:36:26;;;;;;;5.60;2.53;;;;;;;;;;4977969;28;20304;-76
2021/01/20 03:38:52;;;;;;;7.50;2.67;;;;;;;;;;4961532;28;21010;-79
2021/01/20 03:41:18;;;;;;;6.37;3.17;;;;;;;;;;4962081;28;20270;-78
2021/01/20 03:43:44;;;;;;;6.13;3.00;;;;;;;;;;4961838;28;20369;-78
2021/01/20 03:46:11;;;;;;;7.17;3.10;;;;;;;;;;4961639;28;20273;-78
2021/01/20 03:48:37;;;;;;;6.70;2.77;;;;;;;;;;4977414;28;20282;-79
2021/01/20 03:51:03;;;;;;;6.33;3.00;;;;;;;;;;4973801;28;20286;-78
2021/01/20 03:53:29;;;;;;;6.83;2.53;;;;;;;;;;4978340;28;20301;-79
2021/01/20 03:55:55;;;;;;;6.60;2.97;;;;;;;;;;4979045;28;20285;-79
2021/01/20 03:58:21;;;;;;;7.00;3.27;;;;;;;;;;4961672;28;20273;-78
2021/01/20 04:00:47;;;;;;;6.37;3.10;;;;;;;;;;4978271;28;20271;-76
2021/01/20 04:03:13;;;;;;;7.70;3.10;;;;;;;;;;4979682;28;20354;-78
2021/01/20 04:05:39;;;;;;;7.60;3.27;;;;;;;;;;4960278;28;20270;-79
2021/01/20 04:08:05;;;;;;;6.57;3.00;;;;;;;;;;4976127;28;20336;-78
2021/01/20 04:10:31;;;;;;;7.23;2.80;;;;;;;;;;4956110;29;20340;-78
2021/01/20 04:12:57;;;;;;;7.67;3.73;;;;;;;;;;4968538;28;20282;-76
2021/01/20 04:15:23;;;;;;;7.07;3.83;;;;;;;;;;4961260;28;20294;-79
2021/01/20 04:17:49;;;;;;;12.90;8.27;;;;;;;;;;4968048;28;20271;-78
2021/01/20 04:20:16;;;;;;;21.73;13.90;;;;;;;;;;4963718;28;20274;-79
2021/01/20 04:22:42;;;;;;;9.40;3.50;;;;;;;;;;4981192;28;20270;-79
2021/01/20 04:25:10;;;;;;;8.03;4.23;;;;;;;;;;4983726;28;20283;-78
2021/01/20 04:27:36;;;;;;;40.73;19.83;;;;;;;;;;4944894;29;20381;-78
2021/01/20 04:30:06;;;;;;;19.33;10.13;;;;;;;;;;4964936;28;20393;-77
2021/01/20 04:32:32;;;;;;;17.93;9.03;;;;;;;;;;4975815;28;20386;-79
2021/01/20 04:34:58;;;;;;;13.13;6.70;;;;;;;;;;4976287;28;20348;-79
2021/01/20 04:37:25;;;;;;;10.70;5.47;;;;;;;;;;4963847;28;20282;-78
2021/01/20 04:39:51;;;;;;;11.57;5.10;;;;;;;;;;4961721;28;20363;-78
2021/01/20 04:42:17;;;;;;;11.20;5.57;;;;;;;;;;4968388;28;20312;-77
2021/01/20 04:44:46;;;;;;;10.27;4.73;;;;;;;;;;4958308;28;20261;-78
2021/01/20 04:47:12;;;;;;;10.63;5.03;;;;;;;;;;4973697;28;20282;-79
2021/01/20 04:49:39;;;;;;;11.60;6.70;;;;;;;;;;4974319;28;20369;-79
2021/01/20 04:52:06;;;;;;;9.83;4.80;;;;;;;;;;4975116;28;20262;-78
2021/01/20 04:54:33;;;;;;;7.13;3.80;;;;;;;;;;4976981;28;20366;-79
2021/01/20 04:56:59;;;;;;;7.80;3.40;;;;;;;;;;4954451;29;20314;-77
2021/01/20 04:59:29;;;;;;;10.07;4.67;;;;;;;;;;4966598;28;20274;-79
2021/01/20 05:01:56;;;;;;;10.63;4.80;;;;;;;;;;4956610;28;20279;-76
2021/01/20 05:04:22;;;;;;;11.33;6.00;;;;;;;;;;4957332;28;20311;-77
2021/01/20 05:06:48;;;;;;;11.77;6.40;;;;;;;;;;4957115;28;20294;-76
2021/01/20 05:09:14;;;;;;;9.23;5.53;;;;;;;;;;4958419;28;20279;-79
2021/01/20 05:11:42;;;;;;;8.57;5.20;;;;;;;;;;4975657;28;20266;-79
2021/01/20 05:14:11;;;;;;;7.47;4.70;;;;;;;;;;4957962;28;20343;-79
2021/01/20 05:16:37;;;;;;;7.40;4.23;;;;;;;;;;4953784;28;20341;-79
2021/01/20 05:19:03;;;;;;;8.30;3.67;;;;;;;;;;4973054;28;20282;-77
2021/01/20 05:21:29;;;;;;;7.63;3.70;;;;;;;;;;4959360;28;21158;-78
2021/01/20 05:24:15;;;;;;;5.73;3.10;;;;;;;;;;4960552;28;20282;-79
2021/01/20 05:26:45;;;;;;;5.30;3.10;;;;;;;;;;4955028;28;20373;-79
2021/01/20 05:29:11;;;;;;;5.57;2.43;;;;;;;;;;4973994;28;20284;-78
2021/01/20 05:31:37;;;;;;;5.37;2.17;;;;;;;;;;4958260;28;21050;-79
2021/01/20 05:34:03;;;;;;;6.10;2.57;;;;;;;;;;4957590;28;20286;-77
2021/01/20 05:36:29;;;;;;;8.57;2.63;;;;;;;;;;4945423;28;20298;-78
2021/01/20 05:38:55;;;;;;;4.30;1.80;;;;;;;;;;4974312;28;20274;-77
2021/01/20 05:41:29;;;;;;;4.30;1.83;;;;;;;;;;4954542;29;20333;-79
2021/01/20 05:43:56;;;;;;;4.37;2.00;;;;;;;;;;4955035;28;20282;-78
2021/01/20 05:46:29;;;;;;;4.83;2.10;;;;;;;;;;4956626;28;21207;-79
2021/01/20 05:48:55;;;;;;;4.80;2.25;;;;;;;;;;4974176;28;20367;-80
2021/01/20 05:51:21;;;;;;;3.23;1.63;;;;;;;;;;4955647;28;20720;-79
2021/01/20 05:53:57;;;;;;;4.63;2.10;;;;;;;;;;4955142;28;20449;-79
2021/01/20 05:56:30;;;;;;;5.77;1.70;;;;;;;;;;4951697;28;20289;-79
2021/01/20 05:58:57;;;;;;;4.43;1.73;;;;;;;;;;4946835;28;20303;-79
2021/01/20 06:01:24;;;;;;;4.83;1.67;;;;;;;;;;4958316;28;20302;-78
2021/01/20 06:03:50;;;;;;;4.43;1.80;;;;;;;;;;4953104;28;20278;-79
2021/01/20 06:06:17;;;;;;;4.53;2.00;;;;;;;;;;4952621;28;20274;-79
2021/01/20 06:08:44;;;;;;;5.77;2.30;;;;;;;;;;4966912;28;20405;-77
2021/01/20 06:11:10;;;;;;;4.67;1.97;;;;;;;;;;4952694;28;20273;-77
2021/01/20 06:13:37;;;;;;;4.00;1.97;;;;;;;;;;4954145;28;20274;-77
2021/01/20 06:16:23;;;;;;;4.17;1.87;;;;;;;;;;4971577;28;20321;-78
2021/01/20 06:18:50;;;;;;;5.67;2.53;;;;;;;;;;4972124;28;21109;-76
2021/01/20 06:21:17;;;;;;;5.60;2.23;;;;;;;;;;4961012;28;20278;-78
2021/01/20 06:23:53;;;;;;;7.53;2.33;;;;;;;;;;4970618;28;20824;-78
2021/01/20 06:26:21;;;;;;;4.47;1.97;;;;;;;;;;4950169;28;20274;-79
2021/01/20 06:28:49;;;;;;;2.63;1.40;;;;;;;;;;4974039;28;20278;-79
2021/01/20 06:31:16;;;;;;;3.90;1.73;;;;;;;;;;4970096;28;20277;-79
2021/01/20 06:33:44;;;;;;;7.87;3.47;;;;;;;;;;4972666;28;20314;-79
2021/01/20 06:36:10;;;;;;;6.63;3.67;;;;;;;;;;4958948;28;20305;-79
2021/01/20 06:38:37;;;;;;;5.67;2.60;;;;;;;;;;4963513;28;20301;-77
2021/01/20 06:41:09;;;;;;;5.37;2.47;;;;;;;;;;4977376;28;20274;-79
2021/01/20 06:43:38;;;;;;;4.57;1.80;;;;;;;;;;4977025;28;20266;-78
2021/01/20 06:46:27;;;;;;;4.27;2.07;;;;;;;;;;4958425;28;20275;-78
2021/01/20 06:48:56;;;;;;;6.37;2.37;;;;;;;;;;4972402;28;20293;-78
2021/01/20 06:51:23;;;;;;;9.13;3.47;;;;;;;;;;4961638;28;20306;-78
2021/01/20 06:54:01;;;;;;;9.30;3.37;;;;;;;;;;4949929;28;20377;-79
2021/01/20 06:56:34;;;;;;;8.20;3.40;;;;;;;;;;4974359;28;20687;-78
2021/01/20 06:59:13;;;;;;;5.80;2.97;;;;;;;;;;4952178;28;20289;-78
2021/01/20 07:01:39;;;;;;;6.20;2.77;;;;;;;;;;4963197;28;20089;-78
2021/01/20 07:04:05;;;;;;;8.17;2.80;;;;;;;;;;4982747;28;20278;-79
2021/01/20 07:06:35;;;;;;;8.50;3.10;;;;;;;;;;4974534;28;20289;-79
2021/01/20 07:09:02;;;;;;;7.20;3.10;;;;;;;;;;4978333;28;20274;-78
2021/01/20 07:11:28;;;;;;;6.63;2.90;;;;;;;;;;4963602;28;20996;-78
2021/01/20 07:13:54;;;;;;;6.13;2.73;;;;;;;;;;4962660;28;20298;-78
2021/01/20 07:16:21;;;;;;;7.53;3.07;;;;;;;;;;4955350;28;20794;-78
2021/01/20 07:18:48;;;;;;;7.00;3.43;;;;;;;;;;4973670;28;20291;-77
2021/01/20 07:21:15;;;;;;;6.73;2.90;;;;;;;;;;4973855;28;20274;-78
2021/01/20 07:23:41;;;;;;;8.23;3.23;;;;;;;;;;4957283;28;20291;-79
2021/01/20 07:26:10;;;;;;;6.37;2.43;;;;;;;;;;4967677;28;20281;-78
2021/01/20 07:28:37;;;;;;;9.53;3.03;;;;;;;;;;4962722;28;20301;-79
2021/01/20 07:31:10;;;;;;;7.13;2.60;;;;;;;;;;4952410;29;20285;-78
2021/01/20 07:33:37;;;;;;;8.27;3.10;;;;;;;;;;4951858;28;20980;-79
2021/01/20 07:36:13;;;;;;;7.27;2.70;;;;;;;;;;4965086;28;20058;-78
2021/01/20 07:38:40;;;;;;;8.00;2.73;;;;;;;;;;4972988;28;20278;-78
2021/01/20 07:41:13;;;;;;;10.77;4.30;;;;;;;;;;4962510;28;20799;-78
2021/01/20 07:43:40;;;;;;;11.60;4.30;;;;;;;;;;4949521;28;20275;-78
2021/01/20 07:46:20;;;;;;;11.20;4.30;;;;;;;;;;4944016;28;21902;-76
2021/01/20 07:48:46;;;;;;;8.33;3.07;;;;;;;;;;4961326;28;20309;-79
2021/01/20 07:51:21;;;;;;;5.40;2.07;;;;;;;;;;4962099;28;20282;-76
2021/01/20 07:53:57;;;;;;;4.70;2.00;;;;;;;;;;4965163;28;20373;-77
2021/01/20 07:56:23;;;;;;;6.43;2.33;;;;;;;;;;4977033;28;20639;-78
2021/01/20 07:58:49;;;;;;;3.13;1.47;;;;;;;;;;4975184;28;20281;-78
2021/01/20 08:01:29;;;;;;;6.57;2.10;;;;;;;;;;4968229;28;20695;-77
2021/01/20 08:03:57;;;;;;;21.50;9.23;;;;;;;;;;4960428;28;20278;-77
2021/01/20 08:06:24;;;;;;;10.23;4.77;;;;;;;;;;4960338;28;20334;-77
2021/01/20 08:08:51;;;;;;;6.93;2.90;;;;;;;;;;4960542;28;20392;-76
2021/01/20 08:11:17;;;;;;;7.13;3.40;;;;;;;;;;4961815;28;20365;-77
2021/01/20 08:13:47;;;;;;;9.27;3.97;;;;;;;;;;4973638;28;20286;-77
2021/01/20 08:16:14;;;;;;;10.53;3.50;;;;;;;;;;4958326;28;20709;-80
2021/01/20 08:18:40;;;;;;;7.93;4.03;;;;;;;;;;4956154;28;20296;-78
2021/01/20 08:21:07;;;;;;;8.13;3.63;;;;;;;;;;4953205;28;20329;-78
2021/01/20 08:23:45;;;;;;;8.40;3.90;;;;;;;;;;4968235;28;20290;-78
2021/01/20 08:26:11;;;;;;;8.83;4.13;;;;;;;;;;4977574;28;20290;-77
2021/01/20 08:28:38;;;;;;;8.07;3.17;;;;;;;;;;4978274;28;20274;-78
2021/01/20 08:31:20;;;;;;;7.53;3.50;;;;;;;;;;4974626;28;20782;-79
2021/01/20 08:33:46;;;;;;;9.17;3.33;;;;;;;;;;4973050;28;20333;-79
2021/01/20 08:36:22;;;;;;;8.67;3.37;;;;;;;;;;4958283;28;20033;-77
2021/01/20 08:38:48;;;;;;;6.97;3.23;;;;;;;;;;4981285;28;20317;-78
2021/01/20 08:41:17;;;;;;;6.03;2.90;;;;;;;;;;4954443;28;20027;-78
2021/01/20 08:43:44;;;;;;;6.20;2.67;;;;;;;;;;4974223;28;20035;-76
2021/01/20 08:46:27;;;;;;;8.60;2.87;;;;;;;;;;4971402;28;20042;-76
2021/01/20 08:48:57;;;;;;;6.80;3.00;;;;;;;;;;4974394;28;20870;-78
2021/01/20 08:51:23;;;;;;;6.20;2.93;;;;;;;;;;4967949;28;20046;-78
2021/01/20 08:53:49;;;;;;;5.80;2.77;;;;;;;;;;4959116;28;20034;-78
2021/01/20 08:56:24;;;;;;;5.60;2.53;;;;;;;;;;4953489;28;20038;-78
2021/01/20 08:58:54;;;;;;;7.00;3.43;;;;;;;;;;4957289;28;20050;-78
2021/01/20 09:01:24;;;;;;;4.53;2.53;;;;;;;;;;4956730;28;20035;-78
2021/01/20 09:04:02;;;;;;;5.50;2.30;;;;;;;;;;4957251;28;20029;-78
2021/01/20 09:06:28;;;;;;;6.87;2.30;;;;;;;;;;4977491;28;20027;-77
2021/01/20 09:08:54;;;;;;;4.87;2.47;;;;;;;;;;4962303;28;20053;-77
2021/01/20 09:11:21;;;;;;;6.63;3.60;;;;;;;;;;4978431;28;20055;-77
2021/01/20 09:13:49;;;;;;;6.43;2.97;;;;;;;;;;4988736;28;20070;-78
2021/01/20 09:16:16;;;;;;;6.10;2.60;;;;;;;;;;4975503;28;20103;-77
2021/01/20 09:18:42;;;;;;;5.60;2.70;;;;;;;;;;4970871;28;20061;-77
2021/01/20 09:21:08;;;;;;;5.17;2.23;;;;;;;;;;4979289;28;20046;-77
2021/01/20 09:23:34;;;;;;;7.03;2.87;;;;;;;;;;4977013;28;20273;-78
2021/01/20 09:26:00;;;;;;;4.57;2.20;;;;;;;;;;4988734;28;20037;-77
2021/01/20 09:28:26;;;;;;;4.50;2.20;;;;;;;;;;4970810;28;20023;-77
2021/01/20 09:30:52;;;;;;;6.07;2.60;;;;;;;;;;4972997;28;20091;-77
2021/01/20 09:33:19;;;;;;;6.87;2.23;;;;;;;;;;4993585;28;20042;-77
2021/01/20 09:35:46;;;;;;;6.47;2.63;;;;;;;;;;4975458;28;20046;-77
2021/01/20 09:38:12;;;;;;;5.87;1.93;;;;;;;;;;4972914;28;20926;-77
2021/01/20 09:40:38;;;;;;;5.47;2.23;;;;;;;;;;4971764;28;20034;-76
2021/01/20 09:43:04;;;;;;;5.33;2.50;;;;;;;;;;4975094;28;20042;-76
2021/01/20 09:45:31;;;;;;;6.80;2.77;;;;;;;;;;4974100;28;20244;-77
2021/01/20 09:47:58;;;;;;;7.87;4.13;;;;;;;;;;4973294;28;20037;-77
2021/01/20 09:50:25;;;;;;;6.33;3.20;;;;;;;;;;4991463;28;20022;-76
2021/01/20 09:52:52;;;;;;;6.60;3.03;;;;;;;;;;4986178;28;20097;-78
2021/01/20 09:55:19;;;;;;;5.50;2.90;;;;;;;;;;4961297;28;20031;-79
2021/01/20 09:57:45;;;;;;;7.30;3.00;;;;;;;;;;4959271;29;20023;-77
2021/01/20 10:00:11;;;;;;;6.63;2.60;;;;;;;;;;4960343;28;20023;-78
2021/01/20 10:02:38;;;;;;;4.17;1.90;;;;;;;;;;4968368;28;20031;-76
2021/01/20 10:05:05;;;;;;;4.90;1.80;;;;;;;;;;4965888;28;20030;-77
2021/01/20 10:07:31;;;;;;;3.90;1.47;;;;;;;;;;4958630;28;20038;-77
2021/01/20 10:09:58;;;;;;;4.93;2.43;;;;;;;;;;4965811;28;20034;-77
2021/01/20 10:12:24;;;;;;;5.07;2.03;;;;;;;;;;4979795;28;20027;-77
2021/01/20 10:14:51;;;;;;;5.00;2.07;;;;;;;;;;4959653;28;20027;-79
2021/01/20 10:17:17;;;;;;;5.53;2.30;;;;;;;;;;4982846;28;20031;-77
2021/01/20 10:19:43;;;;;;;4.90;2.30;;;;;;;;;;4976066;28;20053;-78
2021/01/20 10:22:09;;;;;;;4.60;1.87;;;;;;;;;;4982077;28;20053;-76
2021/01/20 10:24:35;;;;;;;4.30;1.73;;;;;;;;;;4978933;28;20034;-76
2021/01/20 10:27:01;;;;;;;4.57;1.87;;;;;;;;;;4962276;28;20030;-78
2021/01/20 10:29:28;;;;;;;4.20;1.40;;;;;;;;;;4968880;28;20034;-79
2021/01/20 10:31:55;;;;;;;3.80;1.67;;;;;;;;;;4977901;28;20050;-77
2021/01/20 10:34:22;;;;;;;5.03;2.13;;;;;;;;;;4978479;28;20031;-75
2021/01/20 10:36:48;;;;;;;5.17;2.13;;;;;;;;;;4957709;28;20049;-77
2021/01/20 10:39:14;;;;;;;7.57;2.77;;;;;;;;;;4961906;28;20027;-78
2021/01/20 10:41:40;;;;;;;6.07;2.67;;;;;;;;;;4978295;28;20082;-76
2021/01/20 10:44:07;;;;;;;3.10;1.50;;;;;;;;;;4984430;28;20053;-75
2021/01/20 10:46:33;;;;;;;7.50;3.23;;;;;;;;;;4959346;28;20041;-78
2021/01/20 10:49:01;;;;;;;5.93;2.77;;;;;;;;;;4947826;29;20038;-75
2021/01/20 10:51:28;;;;;;;8.67;3.57;;;;;;;;;;4947560;28;20037;-78
2021/01/20 10:53:55;;;;;;;15.23;7.40;;;;;;;;;;4955624;28;20043;-78
2021/01/20 10:56:21;;;;;;;12.60;6.77;;;;;;;;;;4969084;28;20030;-78
2021/01/20 10:58:47;;;;;;;12.00;6.30;;;;;;;;;;4964107;28;20018;-78
2021/01/20 11:01:13;;;;;;;6.57;2.80;;;;;;;;;;4956830;28;20031;-77
2021/01/20 11:03:40;;;;;;;6.03;2.50;;;;;;;;;;4947509;29;20051;-78
2021/01/20 11:06:06;;;;;;;6.40;2.40;;;;;;;;;;4956340;28;20023;-77
2021/01/20 11:08:33;;;;;;;5.23;2.63;;;;;;;;;;4966921;28;20042;-76
2021/01/20 11:10:59;;;;;;;7.13;2.30;;;;;;;;;;4947962;28;20035;-77
2021/01/20 11:13:25;;;;;;;5.90;2.27;;;;;;;;;;4971124;28;20031;-77
2021/01/20 11:15:51;;;;;;;6.03;2.57;;;;;;;;;;4966603;28;20031;-77
2021/01/20 11:18:19;;;;;;;6.23;2.53;;;;;;;;;;4966777;28;20058;-78
2021/01/20 11:20:46;;;;;;;5.03;2.73;;;;;;;;;;4974822;28;20026;-76
2021/01/20 11:23:13;;;;;;;6.57;3.13;;;;;;;;;;4956696;28;20118;-78
2021/01/20 11:25:52;;;;;;;9.27;4.93;;;;;;;;;;4972343;28;20035;-78
2021/01/20 11:28:18;;;;;;;6.03;3.37;;;;;;;;;;4953906;28;20042;-78
2021/01/20 11:30:44;;;;;;;4.17;2.17;;;;;;;;;;4965810;28;20028;-78
2021/01/20 11:33:11;;;;;;;5.70;2.40;;;;;;;;;;4942381;28;20042;-78
2021/01/20 11:35:37;;;;;;;4.97;1.83;;;;;;;;;;4966529;28;20031;-77
2021/01/20 11:38:04;;;;;;;4.70;1.60;;;;;;;;;;4967728;28;20023;-78
2021/01/20 11:40:31;;;;;;;3.60;1.85;;;;;;;;;;4967321;28;20023;-79
2021/01/20 11:42:57;;;;;;;4.47;1.95;;;;;;;;;;4953807;28;20030;-76
2021/01/20 11:45:26;;;;;;;6.35;3.55;;;;;;;;;;4953195;28;20035;-78
2021/01/20 11:47:53;;;;;;;7.43;3.30;;;;;;;;;;4962811;28;20111;-78
2021/01/20 11:50:19;;;;;;;6.13;3.83;;;;;;;;;;4969437;28;20492;-77
2021/01/20 11:52:45;;;;;;;6.40;3.50;;;;;;;;;;4962577;28;20035;-76
2021/01/20 11:55:12;;;;;;;7.03;3.63;;;;;;;;;;4963285;28;20452;-76
2021/01/20 11:57:38;;;;;;;7.43;4.18;;;;;;;;;;4961529;28;20057;-78
2021/01/20 12:00:05;;;;;;;7.45;3.92;;;;;;;;;;4968664;28;20777;-78
2021/01/20 12:02:31;;;;;;;6.03;3.38;;;;;;;;;;4924140;28;20697;-78
2021/01/20 12:04:57;;;;;;;6.75;3.75;;;;;;;;;;4955587;28;20038;-76
2021/01/20 12:07:24;;;;;;;7.10;3.60;;;;;;;;;;4938538;28;20031;-76
2021/01/20 12:09:51;;;;;;;5.78;3.38;;;;;;;;;;4974056;28;20039;-76
2021/01/20 12:12:17;;;;;;;6.28;3.88;;;;;;;;;;4955425;28;20117;-77
2021/01/20 12:14:43;;;;;;;7.18;3.45;;;;;;;;;;4974422;28;21093;-76
2021/01/20 12:17:09;;;;;;;6.63;3.85;;;;;;;;;;4957116;28;20380;-79
2021/01/20 12:19:35;;;;;;;7.55;3.55;;;;;;;;;;4941410;28;20034;-79
2021/01/20 12:22:02;;;;;;;6.97;3.90;;;;;;;;;;4968966;28;20033;-79
2021/01/20 12:24:29;;;;;;;7.15;3.75;;;;;;;;;;4954944;28;20053;-79
2021/01/20 12:26:55;;;;;;;6.45;3.15;;;;;;;;;;4958625;28;20031;-79
2021/01/20 12:29:22;;;;;;;6.53;3.75;;;;;;;;;;4956614;28;20090;-80
2021/01/20 12:31:48;;;;;;;6.00;3.22;;;;;;;;;;4952130;28;20484;-80
2021/01/20 12:34:17;;;;;;;6.78;3.35;;;;;;;;;;4954721;28;20074;-79
2021/01/20 12:36:44;;;;;;;8.23;4.38;;;;;;;;;;4956606;28;20096;-79
2021/01/20 12:39:11;;;;;;;9.20;4.25;;;;;;;;;;4958561;28;20503;-79
2021/01/20 12:41:39;;;;;;;10.63;4.28;;;;;;;;;;4973188;28;20213;-78
2021/01/20 12:44:06;;;;;;;6.95;3.60;;;;;;;;;;4958266;28;20173;-78
2021/01/20 12:46:32;;;;;;;9.20;3.88;;;;;;;;;;4975664;28;20073;-77
2021/01/20 12:48:58;;;;;;;5.93;3.50;;;;;;;;;;4968258;28;20035;-77
2021/01/20 12:51:25;;;;;;;6.45;3.30;;;;;;;;;;4962257;28;20126;-78
2021/01/20 12:53:51;;;;;;;9.30;3.40;;;;;;;;;;4956294;28;20041;-78
2021/01/20 12:56:17;;;;;;;4.93;2.45;;;;;;;;;;4955931;28;20023;-78
2021/01/20 12:58:43;;;;;;;5.20;2.50;;;;;;;;;;4953915;28;20098;-78
2021/01/20 13:01:09;;;;;;;5.80;1.80;;;;;;;;;;4960919;28;20039;-79
2021/01/20 13:03:35;;;;;;;3.20;1.60;;;;;;;;;;4968749;28;20039;-78
2021/01/20 13:06:02;;;;;;;5.03;2.00;;;;;;;;;;4956453;28;20049;-79
2021/01/20 13:08:30;;;;;;;6.10;2.53;;;;;;;;;;4971506;28;20027;-79
2021/01/20 13:10:56;;;;;;;6.17;2.20;;;;;;;;;;4976399;28;20027;-79
2021/01/20 13:13:22;;;;;;;8.60;2.87;;;;;;;;;;4976389;28;20091;-79
2021/01/20 13:15:52;;;;;;;5.07;2.50;;;;;;;;;;4975524;28;20098;-79
2021/01/20 13:18:18;;;;;;;3.13;1.70;;;;;;;;;;4975058;28;20111;-79
2021/01/20 13:20:44;;;;;;;4.53;1.60;;;;;;;;;;4976016;28;20035;-79
2021/01/20 13:23:11;;;;;;;6.10;2.20;;;;;;;;;;4974770;28;20175;-79
2021/01/20 13:25:38;;;;;;;4.30;1.90;;;;;;;;;;4971452;28;20042;-79
2021/01/20 13:28:04;;;;;;;3.43;1.40;;;;;;;;;;4956099;29;20078;-78
2021/01/20 13:30:31;;;;;;;2.77;1.47;;;;;;;;;;4968924;28;20059;-79
2021/01/20 13:32:57;;;;;;;4.57;1.63;;;;;;;;;;4959538;28;20731;-79
2021/01/20 13:35:24;;;;;;;3.10;1.43;;;;;;;;;;4959701;28;20181;-79
2021/01/20 13:37:51;;;;;;;6.63;1.63;;;;;;;;;;4959305;28;20062;-78
2021/01/20 13:40:19;;;;;;;4.33;1.80;;;;;;;;;;4958489;28;20477;-79
2021/01/20 13:42:45;;;;;;;7.03;3.20;;;;;;;;;;4954234;28;20456;-80
2021/01/20 13:45:22;;;;;;;7.73;3.07;;;;;;;;;;4958304;28;20030;-80
2021/01/20 13:47:50;;;;;;;5.47;1.80;;;;;;;;;;4957517;28;20041;-80
2021/01/20 13:50:17;;;;;;;4.53;2.50;;;;;;;;;;4957016;28;20039;-79
2021/01/20 13:52:43;;;;;;;2.40;1.37;;;;;;;;;;4954671;29;20409;-80
2021/01/20 13:55:09;;;;;;;2.83;1.30;;;;;;;;;;4955524;28;20035;-79
2021/01/20 13:57:36;;;;;;;5.97;1.93;;;;;;;;;;4958157;28;20030;-79
2021/01/20 14:00:04;;;;;;;4.23;1.47;;;;;;;;;;4956416;28;20074;-81
2021/01/20 14:02:30;;;;;;;3.50;1.23;;;;;;;;;;4961037;28;20037;-79
2021/01/20 14:04:56;;;;;;;3.77;1.37;;;;;;;;;;4937971;29;20038;-79
2021/01/20 14:07:22;;;;;;;3.90;1.43;;;;;;;;;;4973505;28;20068;-79
2021/01/20 14:09:48;;;;;;;5.93;1.93;;;;;;;;;;4956628;28;20035;-79
2021/01/20 14:12:16;;;;;;;3.93;1.20;;;;;;;;;;4967215;28;20035;-79
2021/01/20 14:14:42;;;;;;;3.60;1.40;;;;;;;;;;4939577;29;20059;-79
2021/01/20 14:17:09;;;;;;;7.97;2.70;;;;;;;;;;4942911;28;20041;-78
2021/01/20 14:19:35;;;;;;;7.73;3.83;;;;;;;;;;4966932;28;20089;-79
2021/01/20 14:22:01;;;;;;;8.03;4.23;;;;;;;;;;4949542;28;20038;-78
2021/01/20 14:24:27;;;;;;;8.87;4.00;;;;;;;;;;4965016;28;20123;-79
2021/01/20 14:26:57;;;;;;;7.37;3.80;;;;;;;;;;4948328;28;20034;-79
2021/01/20 14:29:23;;;;;;;19.80;9.37;;;;;;;;;;4968049;28;20031;-78
2021/01/20 14:31:53;;;;;;;13.77;7.10;;;;;;;;;;4963743;28;20031;-79
2021/01/20 14:34:22;;;;;;;17.03;8.23;;;;;;;;;;4974310;28;20033;-80
2021/01/20 14:36:50;;;;;;;22.13;10.43;;;;;;;;;;4958541;28;20078;-80
2021/01/20 14:39:18;;;;;;;14.87;6.90;;;;;;;;;;4959316;28;20026;-80
2021/01/20 14:41:45;;;;;;;8.87;4.17;;;;;;;;;;4958929;28;20044;-80
2021/01/20 14:44:16;;;;;;;9.50;4.40;;;;;;;;;;4959492;28;20396;-80